Terminal Aerodrome Forecast
Issued by NWS

Home | Current Version | Previous Version | Text Only | Print | Product List | Glossary On
Versions: 1 2 3 4 5 6 7 8 9 10 11 12 13 14 15
638
FTUS43 KAPX 182334
TAFAPN
TAF
KAPN 182334Z 1900/1924 35011KT P6SM OVC016
     FM190200 34012G22KT P6SM OVC020
     FM191200 32014G23KT P6SM VCSH OVC030
     FM191600 31012G22KT P6SM VCSH BKN035
     FM191800 31014G23KT P6SM BKN040
     FM192200 29011G19KT P6SM BKN040=

USA.gov is the U.S. government's official web portal to all federal, state and local government web resources and services.